Portada
METAR-TAF:

METAR-TAF

Aeroports :

Sukhothai, Tailàndia

latitud: 17-14-16N, longitud: 099-49-05E, altitud: 55 m

Observació

L'informe es va fer fa 40 minuts, a les 07:00 UTC
Vent 5 kt del Sud
Temperatura 34°C
Humitat 56%
Pressió 1004 hPa
Visibilitat 10 km o més
Núvols disperses a una alçada de 2500 ft

METAR: VTPO 060700Z 17005KT 9999 SCT025 34/24 Q1004 NOSIG

Hora: 14:40 (07:40 UTC)

Pronòstic

L'informe es va fer fa 2 hores i 40 minuts, a les 05:00 UTC
Pronòstic vàlid del 06 a les 06 UTC al 07 a les 06 UTC
Vent 5 kt del Sud/Sud-Est
Visibilitat 10 km o més
Cel ennuvolat a una alçada de 2500 ft
Temporalment
l' 06 a les 09 UTC al 06 a les 15 UTC
Vent 15 kt del Sud/Sud-Oest amb ràfegues de 30 kt
Visibilitat: 4000 m
Escasses núvols a una alçada de 1800 ft, Cumulonimbus.
Cel ennuvolat a una alçada de 2500 ft
tempesta, pluja

TAF: VTPO 060500Z 0606/0706 16005KT 9999 BKN025 TEMPO 0609/0615 21015G30KT 4000 TSRA FEW018CB BKN025

Observacions i pronòstics meteorològics de més de 4000 aeroports (METAR i TAF).

Les estacions disponibles són els punts grocs i vermells al mapa.

Posi el ratolí al punt desitjat per veure el nom de l'estació.

Feu clic per veure les observacions i els pronòstics meteorològics.

Per canviar el mapa: feu clic els botons verds amb una creu de color negre per apropar; al botó verd amb un guió per allunyar la imatge; o en les fletxes verdes per a mapes adjacents.


METAR-TAF: